Time;durP1;ratioP1;P1;durP2;ratioP2;P2;SDS_P1;SDS_P2;PMS_P1;PMS_P2;Temp;Humidity;BMP_temperature;BMP_pressure;BME280_temperature;BME280_humidity;BME280_pressure;Samples;Min_cycle;Max_cycle;Signal;HPM_P1;HPM_P2
2022/12/22 03:25:52;;;;;;;;;;;9.10;99.90;;;;;;5110075;28;19957;-43
2022/12/22 03:28:19;;;;;;;;;;;9.10;99.90;;;;;;5094709;28;19915;-41
2022/12/22 03:30:44;;;;;;;;;;;9.10;99.90;;;;;;5102231;28;19924;-43
2022/12/22 03:33:10;;;;;;;;;;;9.10;99.90;;;;;;5114959;28;19908;-43
2022/12/22 03:35:35;;;;;;;;;;;9.10;99.90;;;;;;5115349;28;19908;-42
2022/12/22 03:38:02;;;;;;;;;;;9.10;99.90;;;;;;5115488;28;20363;-44
2022/12/22 03:40:31;;;;;;;;;;;9.10;99.90;;;;;;5113512;28;19986;-43
2022/12/22 03:48:24;;;;;;;;;;;9.10;99.90;;;;;;5114932;28;19957;-43
2022/12/22 03:50:50;;;;;;;;;;;9.10;99.90;;;;;;5115299;28;19916;-42
2022/12/22 03:53:15;;;;;;;;;;;9.10;99.90;;;;;;5115294;28;19953;-43
2022/12/22 03:55:41;;;;;;;;;;;9.10;99.90;;;;;;5108116;28;20000;-43
2022/12/22 03:58:06;;;;;;;;;;;9.10;99.90;;;;;;5094882;28;19927;-43
2022/12/22 04:00:32;;;;;;;;;;;9.10;99.90;;;;;;5094665;28;20407;-43
2022/12/22 04:02:57;;;;;;;;;;;9.10;99.90;;;;;;5093866;28;19912;-43
2022/12/22 04:05:23;;;;;;;;;;;9.10;99.90;;;;;;5094446;28;19912;-43
2022/12/22 04:07:49;;;;;;;;;;;9.10;99.90;;;;;;5094571;28;19931;-43
2022/12/22 04:12:58;;;;;;;;;;;9.10;99.90;;;;;;5094587;28;20293;-41
2022/12/22 04:15:28;;;;;;;;;;;9.10;99.90;;;;;;5093631;28;20595;-44
2022/12/22 04:17:54;;;;;;;;;;;9.10;99.90;;;;;;5094358;28;19923;-43
2022/12/22 04:20:20;;;;;;;;;;;9.10;99.90;;;;;;5094212;28;19912;-43
2022/12/22 04:22:46;;;;;;;;;;;9.10;99.90;;;;;;5093455;28;20359;-43
2022/12/22 04:25:12;;;;;;;;;;;9.10;99.90;;;;;;5094203;28;19923;-41
2022/12/22 04:27:38;;;;;;;;;;;9.10;99.90;;;;;;5094110;28;19909;-42
2022/12/22 04:30:04;;;;;;;;;;;9.10;99.90;;;;;;5093105;28;19963;-42
2022/12/22 04:32:29;;;;;;;;;;;9.10;99.90;;;;;;5094017;28;20413;-42
2022/12/22 04:34:55;;;;;;;;;;;9.10;99.90;;;;;;5094101;28;19991;-44
2022/12/22 04:37:20;;;;;;;;;;;9.10;99.90;;;;;;5093163;28;20306;-42
2022/12/22 04:39:46;;;;;;;;;;;9.10;99.90;;;;;;5093973;28;19908;-42
2022/12/22 04:42:11;;;;;;;;;;;9.10;99.90;;;;;;5107034;28;19912;-40
2022/12/22 04:44:36;;;;;;;;;;;9.10;99.90;;;;;;5113125;28;20010;-42
2022/12/22 04:47:02;;;;;;;;;;;9.10;99.90;;;;;;5114126;28;19954;-41
2022/12/22 04:49:27;;;;;;;;;;;9.10;99.90;;;;;;5114060;28;19908;-41
2022/12/22 04:51:53;;;;;;;;;;;9.10;99.90;;;;;;5113072;28;19907;-40
2022/12/22 04:54:18;;;;;;;;;;;9.10;99.90;;;;;;5114049;28;19908;-42
2022/12/22 04:56:44;;;;;;;;;;;9.10;99.90;;;;;;5113989;28;19911;-41
2022/12/22 04:59:09;;;;;;;;;;;9.10;99.90;;;;;;5113203;28;19907;-41
2022/12/22 05:01:36;;;;;;;;;;;9.10;99.90;;;;;;5113789;28;19951;-41
2022/12/22 05:04:01;;;;;;;;;;;9.10;99.90;;;;;;5113920;28;19916;-40
2022/12/22 05:06:26;;;;;;;;;;;9.10;99.90;;;;;;5113262;28;19907;-42
2022/12/22 05:08:52;;;;;;;;;;;9.10;99.90;;;;;;5113866;28;19916;-42
2022/12/22 05:11:17;;;;;;;;;;;9.10;99.90;;;;;;5105407;28;19999;-43
2022/12/22 05:13:43;;;;;;;;;;;9.10;99.90;;;;;;5092613;28;19915;-41
2022/12/22 05:16:10;;;;;;;;;;;9.10;99.90;;;;;;5093310;28;19908;-42
2022/12/22 05:18:36;;;;;;;;;;;9.10;99.90;;;;;;5092394;28;19908;-41
2022/12/22 05:21:03;;;;;;;;;;;9.10;99.90;;;;;;5112343;28;19912;-42
2022/12/22 05:23:28;;;;;;;;;;;9.10;99.90;;;;;;5113450;28;19911;-42
2022/12/22 05:25:54;;;;;;;;;;;9.00;99.90;;;;;;5112927;28;19946;-42
2022/12/22 05:28:19;;;;;;;;;;;9.00;99.90;;;;;;5113148;28;19912;-43
2022/12/22 05:30:45;;;;;;;;;;;9.00;99.90;;;;;;5113009;28;20381;-41
2022/12/22 05:33:10;;;;;;;;;;;9.00;99.90;;;;;;5112667;28;19911;-42
2022/12/22 05:35:36;;;;;;;;;;;9.00;99.90;;;;;;5113286;28;19933;-42
2022/12/22 05:38:01;;;;;;;;;;;9.00;99.90;;;;;;5113433;28;19908;-42
2022/12/22 05:40:27;;;;;;;;;;;9.00;99.90;;;;;;5096408;28;20286;-43
2022/12/22 05:42:52;;;;;;;;;;;9.00;99.90;;;;;;5092790;28;19961;-41
2022/12/22 05:45:18;;;;;;;;;;;9.00;99.90;;;;;;5092601;28;19919;-41
2022/12/22 05:47:45;;;;;;;;;;;9.00;99.90;;;;;;5092024;28;19934;-43
2022/12/22 05:50:11;;;;;;;;;;;9.00;99.90;;;;;;5097786;28;19912;-42
2022/12/22 05:52:37;;;;;;;;;;;9.00;99.90;;;;;;5109593;28;19919;-45
2022/12/22 05:55:03;;;;;;;;;;;9.00;99.90;;;;;;5111321;28;19916;-41
2022/12/22 05:57:29;;;;;;;;;;;9.10;99.90;;;;;;5112489;28;20481;-43
2022/12/22 05:59:54;;;;;;;;;;;9.10;99.90;;;;;;5113070;28;20003;-41
2022/12/22 06:02:20;;;;;;;;;;;9.00;99.90;;;;;;5112404;28;19908;-40
2022/12/22 06:04:46;;;;;;;;;;;9.00;99.90;;;;;;5117203;28;19955;-41
2022/12/22 06:07:11;;;;;;;;;;;9.00;99.90;;;;;;5117405;28;19914;-42
2022/12/22 06:09:36;;;;;;;;;;;9.10;99.90;;;;;;5115883;28;19919;-40
2022/12/22 06:12:02;;;;;;;;;;;9.10;99.90;;;;;;5117255;28;19978;-41
2022/12/22 06:14:28;;;;;;;;;;;9.10;99.90;;;;;;5117091;28;20011;-40
2022/12/22 06:16:53;;;;;;;;;;;9.10;99.90;;;;;;5116473;28;19912;-44
2022/12/22 06:19:18;;;;;;;;;;;9.10;99.90;;;;;;5116609;28;19907;-40
2022/12/22 06:21:44;;;;;;;;;;;9.10;99.90;;;;;;5117154;28;19940;-41
2022/12/22 06:24:09;;;;;;;;;;;9.10;99.90;;;;;;5116271;28;19916;-42
2022/12/22 06:26:35;;;;;;;;;;;9.10;99.90;;;;;;5116788;28;19947;-43
2022/12/22 06:29:00;;;;;;;;;;;9.10;99.90;;;;;;5116066;28;19911;-41
2022/12/22 06:31:26;;;;;;;;;;;9.00;99.90;;;;;;5116301;28;19946;-42
2022/12/22 06:33:51;;;;;;;;;;;9.00;99.90;;;;;;5116805;28;20424;-45
2022/12/22 06:36:17;;;;;;;;;;;9.00;99.90;;;;;;5115975;28;20008;-40
2022/12/22 06:38:42;;;;;;;;;;;9.00;99.90;;;;;;5112509;28;19912;-40
2022/12/22 06:41:08;;;;;;;;;;;9.00;99.90;;;;;;5096299;28;19930;-40
2022/12/22 06:43:33;;;;;;;;;;;9.00;99.90;;;;;;5095327;28;19919;-42
2022/12/22 06:45:58;;;;;;;;;;;9.00;99.90;;;;;;5096343;28;19965;-40
2022/12/22 06:48:24;;;;;;;;;;;9.00;99.90;;;;;;5096112;28;20082;-39
2022/12/22 06:50:49;;;;;;;;;;;8.90;99.90;;;;;;5096503;28;19912;-40
2022/12/22 06:53:15;;;;;;;;;;;8.90;99.90;;;;;;5096037;28;20006;-43
2022/12/22 06:55:41;;;;;;;;;;;8.90;99.90;;;;;;5095902;28;20505;-40
2022/12/22 06:58:06;;;;;;;;;;;8.90;99.90;;;;;;5103917;28;20335;-40
2022/12/22 07:00:32;;;;;;;;;;;8.90;99.90;;;;;;5132976;27;20475;-41
2022/12/22 07:02:58;;;;;;;;;;;8.90;99.90;;;;;;5133778;27;20309;-41
2022/12/22 07:05:23;;;;;;;;;;;8.80;99.90;;;;;;5115420;28;19912;-40
2022/12/22 07:07:49;;;;;;;;;;;8.80;99.90;;;;;;5101837;28;19908;-42
2022/12/22 07:10:15;;;;;;;;;;;8.70;99.90;;;;;;5095539;28;19915;-44
2022/12/22 07:12:40;;;;;;;;;;;8.70;99.90;;;;;;5094884;28;19911;-41
2022/12/22 07:15:06;;;;;;;;;;;8.60;99.90;;;;;;5095415;28;20418;-41
2022/12/22 07:17:31;;;;;;;;;;;8.50;99.90;;;;;;5095701;28;19915;-40
2022/12/22 07:19:57;;;;;;;;;;;8.40;99.90;;;;;;5094773;28;20355;-39
2022/12/22 07:22:22;;;;;;;;;;;8.30;99.90;;;;;;5111895;28;19907;-40
2022/12/22 07:24:49;;;;;;;;;;;8.30;99.90;;;;;;5115644;28;19945;-40
2022/12/22 07:27:14;;;;;;;;;;;8.30;99.90;;;;;;5095146;28;20351;-39
2022/12/22 07:29:40;;;;;;;;;;;8.20;99.90;;;;;;5095321;28;19915;-40
2022/12/22 07:32:06;;;;;;;;;;;8.10;99.90;;;;;;5095142;28;19926;-40
2022/12/22 07:34:31;;;;;;;;;;;8.00;99.90;;;;;;5094423;28;19908;-39
2022/12/22 07:36:57;;;;;;;;;;;7.90;99.90;;;;;;5099885;28;19934;-40
2022/12/22 07:39:22;;;;;;;;;;;7.90;99.90;;;;;;5127613;27;19911;-39
2022/12/22 07:44:32;;;;;;;;;;;7.80;99.90;;;;;;5095127;28;19923;-41
2022/12/22 07:46:57;;;;;;;;;;;7.70;99.90;;;;;;5109845;28;19912;-41
2022/12/22 07:52:07;;;;;;;;;;;7.50;99.90;;;;;;5115492;28;19914;-42
2022/12/22 07:54:33;;;;;;;;;;;7.50;99.90;;;;;;5118238;27;19907;-41
2022/12/22 07:56:58;;;;;;;;;;;7.50;99.90;;;;;;5135707;27;19908;-41
2022/12/22 07:59:24;;;;;;;;;;;7.40;99.90;;;;;;5135690;27;19915;-40
2022/12/22 08:01:49;;;;;;;;;;;7.30;99.90;;;;;;5134980;27;19915;-39
2022/12/22 08:04:15;;;;;;;;;;;7.30;99.90;;;;;;5135639;27;19926;-39
2022/12/22 08:06:40;;;;;;;;;;;7.30;99.90;;;;;;5123863;27;20286;-42
2022/12/22 08:09:07;;;;;;;;;;;7.40;99.90;;;;;;5101350;28;19912;-42
2022/12/22 08:11:33;;;;;;;;;;;7.40;99.90;;;;;;5114118;28;20428;-42
2022/12/22 08:13:58;;;;;;;;;;;7.50;99.90;;;;;;5112654;28;19916;-40
2022/12/22 08:16:24;;;;;;;;;;;7.60;99.90;;;;;;5099773;28;19995;-43
2022/12/22 08:18:49;;;;;;;;;;;7.60;99.90;;;;;;5103342;28;19919;-42
2022/12/22 08:21:15;;;;;;;;;;;7.60;99.90;;;;;;5104065;28;20010;-40
2022/12/22 08:23:40;;;;;;;;;;;7.60;99.90;;;;;;5095634;28;20014;-41
2022/12/22 08:26:17;;;;;;;;;;;7.60;99.90;;;;;;5107066;28;19919;-42
2022/12/22 08:29:02;;;;;;;;;;;7.60;99.90;;;;;;5108203;28;19919;-42
2022/12/22 08:31:29;;;;;;;;;;;7.60;99.90;;;;;;5119067;27;19920;-42
2022/12/22 08:33:55;;;;;;;;;;;7.60;99.90;;;;;;5120878;27;20002;-41
2022/12/22 08:36:21;;;;;;;;;;;7.60;99.90;;;;;;5094477;28;19965;-39
2022/12/22 08:38:47;;;;;;;;;;;7.60;99.90;;;;;;5116501;27;19924;-42
2022/12/22 08:41:14;;;;;;;;;;;7.60;99.90;;;;;;5094715;27;19908;-42
2022/12/22 08:43:39;;;;;;;;;;;7.60;99.90;;;;;;5094415;27;19947;-43
2022/12/22 08:46:05;;;;;;;;;;;7.70;99.90;;;;;;5094122;28;20252;-42
2022/12/22 08:48:30;;;;;;;;;;;7.70;99.90;;;;;;5100679;28;20039;-40
2022/12/22 08:50:56;;;;;;;;;;;7.70;99.90;;;;;;5097169;28;20252;-41
2022/12/22 08:53:21;;;;;;;;;;;7.70;99.90;;;;;;5093919;27;20370;-39
2022/12/22 08:55:51;;;;;;;;;;;7.70;99.90;;;;;;5129488;27;19919;-40
2022/12/22 08:58:16;;;;;;;;;;;7.70;99.90;;;;;;5113297;28;19908;-41
2022/12/22 09:00:42;;;;;;;;;;;7.70;99.90;;;;;;5113765;28;19912;-43
2022/12/22 09:03:08;;;;;;;;;;;7.70;99.90;;;;;;5113793;28;19959;-41
2022/12/22 09:05:37;;;;;;;;;;;7.60;99.90;;;;;;5112899;28;19911;-43
2022/12/22 09:08:03;;;;;;;;;;;7.60;99.90;;;;;;5113925;28;19946;-41
2022/12/22 09:10:28;;;;;;;;;;;7.60;99.90;;;;;;5113586;28;19908;-40
2022/12/22 09:12:54;;;;;;;;;;;7.60;99.90;;;;;;5112897;28;19915;-40
2022/12/22 09:15:19;;;;;;;;;;;7.60;99.90;;;;;;5113750;28;19908;-41
2022/12/22 09:17:45;;;;;;;;;;;7.50;99.90;;;;;;5112571;28;19911;-41
2022/12/22 09:20:11;;;;;;;;;;;7.50;99.90;;;;;;5102858;28;20252;-42
2022/12/22 09:22:36;;;;;;;;;;;7.50;99.90;;;;;;5099899;28;19919;-40
2022/12/22 09:25:02;;;;;;;;;;;7.50;99.90;;;;;;5092268;28;20039;-42
2022/12/22 09:27:28;;;;;;;;;;;7.40;99.90;;;;;;5092845;28;19919;-42
2022/12/22 09:29:54;;;;;;;;;;;7.40;99.90;;;;;;5096238;28;19912;-41
2022/12/22 09:32:19;;;;;;;;;;;7.40;99.90;;;;;;5112574;28;19915;-40
2022/12/22 09:34:45;;;;;;;;;;;7.40;99.90;;;;;;5113327;28;19908;-43
2022/12/22 09:37:13;;;;;;;;;;;7.30;99.90;;;;;;5111075;28;19943;-40
2022/12/22 09:39:38;;;;;;;;;;;7.30;99.90;;;;;;5106490;27;19955;-40
2022/12/22 09:42:03;;;;;;;;;;;7.30;99.90;;;;;;5133629;27;19969;-42
2022/12/22 09:44:33;;;;;;;;;;;7.40;99.90;;;;;;5120886;27;19927;-43
2022/12/22 09:47:25;;;;;;;;;;;7.50;99.90;;;;;;5102714;28;19915;-43
2022/12/22 09:49:51;;;;;;;;;;;7.40;99.90;;;;;;5061030;28;20374;-43
2022/12/22 09:52:32;;;;;;;;;;;7.50;99.90;;;;;;5092753;28;19909;-41
2022/12/22 09:54:58;;;;;;;;;;;7.50;99.90;;;;;;5092055;28;19908;-42
2022/12/22 09:57:27;;;;;;;;;;;7.50;99.90;;;;;;5100386;28;19919;-41
2022/12/22 09:59:53;;;;;;;;;;;7.40;99.90;;;;;;5106267;28;19908;-48
2022/12/22 10:02:18;;;;;;;;;;;7.40;99.90;;;;;;5113066;28;19915;-41
2022/12/22 10:04:44;;;;;;;;;;;7.40;99.90;;;;;;5125250;28;19949;-41
2022/12/22 10:07:24;;;;;;;;;;;7.30;99.90;;;;;;5112301;28;19915;-42
2022/12/22 10:09:50;;;;;;;;;;;7.30;99.90;;;;;;5113081;28;20428;-40
2022/12/22 10:12:17;;;;;;;;;;;7.30;99.90;;;;;;5112960;28;19908;-43
2022/12/22 10:14:46;;;;;;;;;;;7.30;99.90;;;;;;5108947;28;19915;-42
2022/12/22 10:17:24;;;;;;;;;;;7.40;99.90;;;;;;5098816;28;19974;-42
2022/12/22 10:19:51;;;;;;;;;;;7.40;99.90;;;;;;5099625;28;19916;-43
2022/12/22 10:22:28;;;;;;;;;;;7.40;99.90;;;;;;5101216;28;19957;-42
2022/12/22 10:24:54;;;;;;;;;;;7.40;99.90;;;;;;5102709;28;19920;-40
2022/12/22 10:27:21;;;;;;;;;;;7.50;99.90;;;;;;5098981;28;19919;-40
2022/12/22 10:29:46;;;;;;;;;;;7.60;99.90;;;;;;5100953;28;19934;-41
2022/12/22 10:32:13;;;;;;;;;;;7.70;99.90;;;;;;5094190;28;19920;-44
2022/12/22 10:34:57;;;;;;;;;;;7.70;99.90;;;;;;5092336;28;20434;-41
2022/12/22 10:37:29;;;;;;;;;;;7.70;99.90;;;;;;5091513;28;19970;-42
2022/12/22 10:39:55;;;;;;;;;;;7.70;99.90;;;;;;5092171;28;20453;-40
2022/12/22 10:42:21;;;;;;;;;;;7.70;99.90;;;;;;5098361;28;19998;-43
2022/12/22 10:44:47;;;;;;;;;;;7.80;99.90;;;;;;5111898;28;20382;-43
2022/12/22 10:47:15;;;;;;;;;;;7.80;99.90;;;;;;5111417;28;19914;-40
2022/12/22 10:49:45;;;;;;;;;;;7.90;99.90;;;;;;5104992;28;19965;-42
2022/12/22 10:52:15;;;;;;;;;;;7.90;99.90;;;;;;5115184;27;19950;-43
2022/12/22 10:54:43;;;;;;;;;;;7.90;99.90;;;;;;5107998;28;20010;-41
2022/12/22 10:57:15;;;;;;;;;;;7.90;99.90;;;;;;5113011;28;19911;-42
2022/12/22 10:59:54;;;;;;;;;;;7.90;99.90;;;;;;5104738;28;19998;-42
2022/12/22 11:02:19;;;;;;;;;;;8.00;99.90;;;;;;5102357;28;19925;-42
2022/12/22 11:04:45;;;;;;;;;;;8.00;99.90;;;;;;5104225;28;19942;-42
2022/12/22 11:07:11;;;;;;;;;;;8.10;99.90;;;;;;5114527;27;20430;-41
2022/12/22 11:09:36;;;;;;;;;;;8.20;99.90;;;;;;5109987;28;19999;-42
2022/12/22 11:12:07;;;;;;;;;;;8.20;99.90;;;;;;5117257;27;19911;-43
2022/12/22 11:14:51;;;;;;;;;;;8.40;99.90;;;;;;5114794;28;19947;-42
2022/12/22 11:17:35;;;;;;;;;;;8.30;99.90;;;;;;5134086;27;20002;-42
2022/12/22 11:20:19;;;;;;;;;;;8.30;99.90;;;;;;5115055;27;20352;-41
2022/12/22 11:22:49;;;;;;;;;;;8.40;99.90;;;;;;5134960;27;20288;-41
2022/12/22 11:25:21;;;;;;;;;;;8.30;99.90;;;;;;5134172;27;19965;-41
2022/12/22 11:27:49;;;;;;;;;;;8.40;99.90;;;;;;5118649;27;19912;-41
2022/12/22 11:30:18;;;;;;;;;;;8.40;99.90;;;;;;5131434;27;19924;-41
2022/12/22 11:32:46;;;;;;;;;;;8.40;99.90;;;;;;5132706;27;20064;-41
2022/12/22 11:35:15;;;;;;;;;;;8.30;99.90;;;;;;5115534;28;20378;-44
2022/12/22 11:37:41;;;;;;;;;;;8.30;99.90;;;;;;5115507;28;19915;-41
2022/12/22 11:40:15;;;;;;;;;;;8.30;99.90;;;;;;5118618;27;20316;-42
2022/12/22 11:42:43;;;;;;;;;;;8.40;99.90;;;;;;5115397;28;19930;-43
2022/12/22 11:45:09;;;;;;;;;;;8.50;99.90;;;;;;5115439;28;19916;-42
2022/12/22 11:47:40;;;;;;;;;;;8.50;99.90;;;;;;5114509;28;19908;-41
2022/12/22 11:50:08;;;;;;;;;;;8.50;99.90;;;;;;5115301;28;19908;-41
2022/12/22 11:52:46;;;;;;;;;;;8.40;99.90;;;;;;5114454;28;19908;-42
2022/12/22 11:55:33;;;;;;;;;;;8.40;99.90;;;;;;5115203;28;19914;-41
2022/12/22 11:58:14;;;;;;;;;;;8.30;99.90;;;;;;5115210;28;19907;-42
2022/12/22 12:00:44;;;;;;;;;;;8.40;99.90;;;;;;5113342;28;20322;-43
2022/12/22 12:03:29;;;;;;;;;;;8.40;99.90;;;;;;5112758;28;20322;-42
2022/12/22 12:05:58;;;;;;;;;;;8.50;99.90;;;;;;5103549;28;19960;-41
2022/12/22 12:08:38;;;;;;;;;;;8.60;99.90;;;;;;5093959;28;19908;-41
2022/12/22 12:11:29;;;;;;;;;;;8.70;99.90;;;;;;5099833;28;19918;-44
2022/12/22 12:13:54;;;;;;;;;;;8.80;99.90;;;;;;5117177;27;19919;-42
2022/12/22 12:16:23;;;;;;;;;;;8.70;99.90;;;;;;5135296;27;19907;-41
2022/12/22 12:19:03;;;;;;;;;;;8.70;99.90;;;;;;5121924;27;19908;-42
2022/12/22 12:21:49;;;;;;;;;;;8.80;99.90;;;;;;5113523;28;20430;-42
2022/12/22 12:24:33;;;;;;;;;;;8.90;99.90;;;;;;5096499;28;20309;-42
2022/12/22 12:27:17;;;;;;;;;;;9.00;99.90;;;;;;5114516;28;20015;-42
2022/12/22 12:29:48;;;;;;;;;;;9.00;99.90;;;;;;5113750;28;19911;-42
2022/12/22 12:32:20;;;;;;;;;;;9.10;99.90;;;;;;5114342;28;20192;-42
2022/12/22 12:34:56;;;;;;;;;;;9.10;99.90;;;;;;5113200;28;20310;-41
2022/12/22 12:37:29;;;;;;;;;;;9.10;99.90;;;;;;5114385;28;19915;-43
2022/12/22 12:40:22;;;;;;;;;;;9.20;99.90;;;;;;5114238;28;20325;-42
2022/12/22 12:42:47;;;;;;;;;;;9.30;99.90;;;;;;5113563;28;20327;-43
2022/12/22 12:45:30;;;;;;;;;;;9.30;99.90;;;;;;5114237;28;20165;-41
2022/12/22 12:48:16;;;;;;;;;;;9.30;99.90;;;;;;5109442;28;20457;-42
2022/12/22 12:50:41;;;;;;;;;;;9.40;99.90;;;;;;5133404;27;20131;-41
2022/12/22 12:53:08;;;;;;;;;;;9.40;99.90;;;;;;5110302;27;20509;-42
2022/12/22 12:55:50;;;;;;;;;;;9.50;99.90;;;;;;5123608;27;20418;-42
2022/12/22 12:58:34;;;;;;;;;;;9.60;99.90;;;;;;5134684;27;19980;-42
2022/12/22 13:01:01;;;;;;;;;;;9.60;99.90;;;;;;5093437;28;20389;-42
2022/12/22 13:03:26;;;;;;;;;;;9.60;99.90;;;;;;5102370;28;20420;-42
2022/12/22 13:05:53;;;;;;;;;;;9.50;99.90;;;;;;5107157;28;19912;-40
2022/12/22 13:08:20;;;;;;;;;;;9.50;99.90;;;;;;5115324;27;19912;-42
2022/12/22 13:10:47;;;;;;;;;;;9.40;99.90;;;;;;5112914;28;19914;-41
2022/12/22 13:13:25;;;;;;;;;;;9.40;99.90;;;;;;5113061;28;19907;-40
2022/12/22 13:15:59;;;;;;;;;;;9.50;99.90;;;;;;5110921;28;19916;-41
2022/12/22 13:18:25;;;;;;;;;;;9.50;99.90;;;;;;5099656;28;19912;-40
2022/12/22 13:21:09;;;;;;;;;;;9.50;99.90;;;;;;5104122;27;19918;-42
2022/12/22 13:23:39;;;;;;;;;;;9.50;99.90;;;;;;5110469;27;19916;-42
2022/12/22 13:26:09;;;;;;;;;;;9.60;99.90;;;;;;5111245;27;19916;-42
2022/12/22 13:28:35;;;;;;;;;;;9.60;99.90;;;;;;5105582;28;19911;-42
2022/12/22 13:31:17;;;;;;;;;;;9.70;99.90;;;;;;5118956;27;20010;-42
2022/12/22 13:33:43;;;;;;;;;;;9.70;99.90;;;;;;5133861;27;19912;-41
2022/12/22 13:36:15;;;;;;;;;;;9.80;99.90;;;;;;5116562;27;19908;-42
2022/12/22 13:38:40;;;;;;;;;;;9.80;99.90;;;;;;5112370;28;19908;-42
2022/12/22 13:41:19;;;;;;;;;;;9.80;99.90;;;;;;5113315;28;19919;-43
2022/12/22 13:43:47;;;;;;;;;;;9.90;99.90;;;;;;5113110;28;20011;-42
2022/12/22 13:46:12;;;;;;;;;;;9.80;99.90;;;;;;5112669;28;19911;-42
2022/12/22 13:48:40;;;;;;;;;;;9.90;99.90;;;;;;5132710;27;19912;-43
2022/12/22 13:51:26;;;;;;;;;;;9.90;99.90;;;;;;5125296;27;19934;-42
2022/12/22 13:54:00;;;;;;;;;;;9.90;99.90;;;;;;5091589;28;19919;-41
2022/12/22 13:56:33;;;;;;;;;;;9.90;99.90;;;;;;5105054;28;19912;-42
2022/12/22 13:59:00;;;;;;;;;;;9.90;99.90;;;;;;5113198;28;19912;-44
2022/12/22 14:01:26;;;;;;;;;;;9.90;99.90;;;;;;5105096;28;19966;-42
2022/12/22 14:03:56;;;;;;;;;;;9.90;99.90;;;;;;5092540;28;19924;-42
2022/12/22 14:06:26;;;;;;;;;;;9.80;99.90;;;;;;5090386;28;20162;-43
2022/12/22 14:08:51;;;;;;;;;;;9.80;99.90;;;;;;5092564;28;19936;-44
2022/12/22 14:11:17;;;;;;;;;;;9.80;99.90;;;;;;5092560;28;19948;-42
2022/12/22 14:13:43;;;;;;;;;;;9.90;99.90;;;;;;5091534;28;20362;-42
2022/12/22 14:16:11;;;;;;;;;;;9.80;99.90;;;;;;5092600;28;19908;-44
2022/12/22 14:18:37;;;;;;;;;;;9.70;99.90;;;;;;5092554;28;19912;-42
2022/12/22 14:21:02;;;;;;;;;;;9.60;99.90;;;;;;5091818;28;19912;-42
2022/12/22 14:23:31;;;;;;;;;;;9.60;99.90;;;;;;5092806;28;20355;-42
2022/12/22 14:25:57;;;;;;;;;;;9.50;99.90;;;;;;5096716;28;19983;-42
2022/12/22 14:28:23;;;;;;;;;;;9.40;99.90;;;;;;5095767;28;19908;-44
2022/12/22 14:30:49;;;;;;;;;;;9.40;99.90;;;;;;5096228;28;19934;-42
2022/12/22 14:33:17;;;;;;;;;;;9.30;99.90;;;;;;5096577;28;19962;-42
2022/12/22 14:35:42;;;;;;;;;;;9.30;99.90;;;;;;5104086;28;19911;-43
2022/12/22 14:38:24;;;;;;;;;;;9.40;99.90;;;;;;5116479;28;19912;-41
2022/12/22 14:40:51;;;;;;;;;;;9.40;99.90;;;;;;5116769;28;19915;-43
2022/12/22 14:43:16;;;;;;;;;;;9.40;99.90;;;;;;5115885;28;19935;-44
2022/12/22 14:45:43;;;;;;;;;;;9.40;99.90;;;;;;5116602;28;20255;-41
2022/12/22 14:48:15;;;;;;;;;;;9.30;99.90;;;;;;5116695;28;19934;-42
2022/12/22 14:50:46;;;;;;;;;;;9.30;99.90;;;;;;5116597;28;20423;-41
2022/12/22 14:53:13;;;;;;;;;;;9.30;99.90;;;;;;5116524;28;20025;-42
2022/12/22 14:55:39;;;;;;;;;;;9.20;99.90;;;;;;5115718;28;19916;-42
2022/12/22 14:58:07;;;;;;;;;;;9.20;99.90;;;;;;5116561;28;20053;-42
2022/12/22 15:00:35;;;;;;;;;;;9.20;99.90;;;;;;5116443;28;19912;-43
2022/12/22 15:03:05;;;;;;;;;;;9.20;99.90;;;;;;5115641;28;20060;-42
2022/12/22 15:05:37;;;;;;;;;;;9.20;99.90;;;;;;5108953;28;19917;-42
2022/12/22 15:08:06;;;;;;;;;;;9.10;99.90;;;;;;5095671;28;19956;-42
2022/12/22 15:10:36;;;;;;;;;;;9.10;99.90;;;;;;5094867;28;19918;-43
2022/12/22 15:13:04;;;;;;;;;;;9.10;99.90;;;;;;5095835;28;20056;-43
2022/12/22 15:15:31;;;;;;;;;;;9.00;99.90;;;;;;5095679;28;19912;-45
2022/12/22 15:17:57;;;;;;;;;;;9.00;99.90;;;;;;5094948;28;19990;-42
2022/12/22 15:20:24;;;;;;;;;;;9.00;99.90;;;;;;5095518;28;19977;-42
2022/12/22 15:22:50;;;;;;;;;;;9.00;99.90;;;;;;5095542;28;19978;-43
2022/12/22 15:25:17;;;;;;;;;;;9.00;99.90;;;;;;5101430;28;19920;-42
2022/12/22 15:27:42;;;;;;;;;;;9.00;99.90;;;;;;5115854;28;19912;-43
2022/12/22 15:30:08;;;;;;;;;;;9.00;99.90;;;;;;5115581;28;20281;-44
2022/12/22 15:32:34;;;;;;;;;;;8.90;99.90;;;;;;5114979;28;19908;-41
2022/12/22 15:35:01;;;;;;;;;;;8.90;99.90;;;;;;5112819;28;19912;-42
2022/12/22 15:37:26;;;;;;;;;;;8.90;99.90;;;;;;5100373;28;20321;-42
2022/12/22 15:39:52;;;;;;;;;;;8.90;99.90;;;;;;5095276;27;19913;-42
2022/12/22 15:42:17;;;;;;;;;;;8.80;99.90;;;;;;5106714;28;19963;-45
2022/12/22 15:44:43;;;;;;;;;;;8.80;99.90;;;;;;5097660;28;19955;-43
2022/12/22 15:47:09;;;;;;;;;;;8.80;99.90;;;;;;5106890;28;19917;-41
2022/12/22 15:49:34;;;;;;;;;;;8.80;99.90;;;;;;5113801;27;19911;-43
2022/12/22 15:52:01;;;;;;;;;;;8.80;99.90;;;;;;5120574;27;20293;-42
2022/12/22 15:54:28;;;;;;;;;;;8.70;99.90;;;;;;5131513;27;20330;-42
2022/12/22 15:56:54;;;;;;;;;;;8.70;99.90;;;;;;5099442;28;20375;-42
2022/12/22 15:59:26;;;;;;;;;;;8.70;99.90;;;;;;5100787;27;19919;-40
2022/12/22 16:01:52;;;;;;;;;;;8.70;99.90;;;;;;5109893;27;19912;-42
2022/12/22 16:04:18;;;;;;;;;;;8.70;99.90;;;;;;5100075;27;19930;-44
2022/12/22 16:06:44;;;;;;;;;;;8.60;99.90;;;;;;5094391;28;19912;-41
2022/12/22 16:09:17;;;;;;;;;;;8.70;99.90;;;;;;5094672;28;19915;-40
2022/12/22 16:11:42;;;;;;;;;;;8.60;99.90;;;;;;5094514;28;19998;-42
2022/12/22 16:14:11;;;;;;;;;;;8.60;99.90;;;;;;5096514;27;19993;-42
2022/12/22 16:16:37;;;;;;;;;;;8.60;99.90;;;;;;5111170;27;19937;-42
2022/12/22 16:19:03;;;;;;;;;;;8.60;99.90;;;;;;5114830;28;19912;-41
2022/12/22 16:21:29;;;;;;;;;;;8.70;99.90;;;;;;5105677;28;19908;-41
2022/12/22 16:23:55;;;;;;;;;;;8.60;99.90;;;;;;5094256;28;20006;-43
2022/12/22 16:26:21;;;;;;;;;;;8.70;99.90;;;;;;5094345;28;19954;-42
2022/12/22 16:28:47;;;;;;;;;;;8.70;99.90;;;;;;5093417;28;19956;-42
2022/12/22 16:31:22;;;;;;;;;;;8.70;99.90;;;;;;5101968;28;19919;-43
2022/12/22 16:33:48;;;;;;;;;;;8.70;99.90;;;;;;5106162;27;19935;-42
2022/12/22 16:36:13;;;;;;;;;;;8.60;99.90;;;;;;5103068;27;20354;-43
2022/12/22 16:38:40;;;;;;;;;;;8.60;99.90;;;;;;5134251;27;20323;-40
2022/12/22 16:41:14;;;;;;;;;;;8.60;99.90;;;;;;5133415;27;20036;-40
2022/12/22 16:43:40;;;;;;;;;;;8.60;99.90;;;;;;5133948;27;20358;-41
2022/12/22 16:46:06;;;;;;;;;;;8.60;99.90;;;;;;5133704;27;19907;-41
2022/12/22 16:48:33;;;;;;;;;;;8.60;99.90;;;;;;5129044;27;20413;-43
2022/12/22 16:50:58;;;;;;;;;;;8.60;99.90;;;;;;5112641;28;19908;-42
2022/12/22 16:53:24;;;;;;;;;;;8.60;99.90;;;;;;5113498;28;19908;-41
2022/12/22 16:55:49;;;;;;;;;;;8.60;99.90;;;;;;5112557;28;19912;-45
2022/12/22 16:58:15;;;;;;;;;;;8.60;99.90;;;;;;5113020;28;19914;-42
2022/12/22 17:00:42;;;;;;;;;;;8.50;99.90;;;;;;5113354;28;19915;-41
2022/12/22 17:03:17;;;;;;;;;;;8.50;99.90;;;;;;5112103;28;19915;-42
2022/12/22 17:05:47;;;;;;;;;;;8.50;99.90;;;;;;5113299;28;19986;-42
2022/12/22 17:08:33;;;;;;;;;;;8.40;99.90;;;;;;5112894;28;19908;-42
2022/12/22 17:11:00;;;;;;;;;;;8.40;99.90;;;;;;5111540;28;19912;-42
2022/12/22 17:13:26;;;;;;;;;;;8.30;99.90;;;;;;5113196;28;19908;-41
2022/12/22 17:15:51;;;;;;;;;;;8.30;99.90;;;;;;5113117;28;20274;-45
2022/12/22 17:18:19;;;;;;;;;;;8.30;99.90;;;;;;5112193;28;19919;-42
2022/12/22 17:20:45;;;;;;;;;;;8.30;99.90;;;;;;5113035;28;19931;-40
2022/12/22 17:23:27;;;;;;;;;;;8.20;99.90;;;;;;5111679;28;19911;-42
2022/12/22 17:25:53;;;;;;;;;;;8.20;99.90;;;;;;5124127;27;20006;-42
2022/12/22 17:28:18;;;;;;;;;;;8.10;99.90;;;;;;5133342;27;20018;-42
2022/12/22 17:30:43;;;;;;;;;;;8.20;99.90;;;;;;5132367;27;19926;-41
2022/12/22 17:33:13;;;;;;;;;;;8.10;99.90;;;;;;5133121;27;20300;-42
2022/12/22 17:35:41;;;;;;;;;;;8.10;99.90;;;;;;5132531;27;20134;-42
2022/12/22 17:38:11;;;;;;;;;;;8.10;99.90;;;;;;5132051;27;19912;-42
2022/12/22 17:40:36;;;;;;;;;;;8.10;99.90;;;;;;5133367;27;19911;-41
2022/12/22 17:43:02;;;;;;;;;;;8.10;99.90;;;;;;5111181;28;19912;-43
2022/12/22 17:45:27;;;;;;;;;;;8.10;99.90;;;;;;5111791;28;20339;-42
2022/12/22 17:47:52;;;;;;;;;;;8.10;99.90;;;;;;5112669;28;19907;-43
2022/12/22 17:50:19;;;;;;;;;;;8.10;99.90;;;;;;5112271;28;19915;-42
2022/12/22 17:52:46;;;;;;;;;;;8.10;99.90;;;;;;5111890;28;19908;-41
2022/12/22 17:55:22;;;;;;;;;;;8.00;99.90;;;;;;5111973;28;19962;-42
2022/12/22 17:57:48;;;;;;;;;;;8.00;99.90;;;;;;5112250;28;19908;-43
2022/12/22 18:00:29;;;;;;;;;;;8.00;99.90;;;;;;5110265;28;19908;-40
2022/12/22 18:02:55;;;;;;;;;;;8.00;99.90;;;;;;5095787;28;19912;-44
2022/12/22 18:05:22;;;;;;;;;;;8.00;99.90;;;;;;5097276;28;19927;-42
2022/12/22 18:07:48;;;;;;;;;;;8.00;99.90;;;;;;5098851;28;19909;-43
2022/12/22 18:10:22;;;;;;;;;;;8.00;99.90;;;;;;5091861;28;20071;-42
2022/12/22 18:12:48;;;;;;;;;;;8.00;99.90;;;;;;5091294;28;19915;-43
2022/12/22 18:15:14;;;;;;;;;;;7.90;99.90;;;;;;5091633;28;19909;-42